Airfield :
LOGIN :

Register | Disclaimer

   EN    FR    IT 

 










Legend :    VFR   Marginal VFR   IFR   Intensive IFR   Very Intensive IFR
Visi :
Ceiling :
>= 8 km
>= 3000ft
5 to 8 km
1000 to 3000 ft
1500m to 5 km
500 to 1000 ft
800 to 1500m
200 to 500 ft
< 800m
< 200 ft
Symbols :   Thunderstorms  Fog  Heavy snow  Heavy precipitations  Wind > 20 kt
SIGMETs :     Misc.  Thunderstorms  Icing  Turbulence  Mountain Waves  Volcanic Ashes






- Airport Elevation : 26 ft
- IATA code : SYY


EGPO - Stornoway

CURRENT METAR :
  • 012050Z AUTO 35011KT 9999 FEW013/// SCT019/// BKN025/// 09/08 Q0996

EXPIRED METARs :
  • 012020Z AUTO 35011KT 9999 FEW008/// SCT015/// BKN023/// 09/08 Q0996
  • 011950Z AUTO 01015KT 9999 -RA FEW025/// SCT030/// BKN037/// 09/08 Q0996
  • 011920Z AUTO 35008KT 9999 SCT031/// BKN039/// 09/06 Q0996
  • 011850Z AUTO 35006KT 9999 FEW025/// 09/05 Q0996
  • 011820Z 35007KT 9999 FEW020 SCT045 09/05 Q0996

TAF TAF EGPO
Valid from the 01 at 21:00 until the 02 at 06:00 UTC


011958Z 0121/0206 36012KT 9999 FEW020 SCT045
BECMG 0121/0124 30006KT
PROB40
TEMPO 0121/0124 6000 RA BKN008
BECMG 0200/0203 BKN007
TEMPO 0200/0206 6000 RA -RADZ
PROB30
TEMPO 0200/0206 3000 DZRA BKN002
ATIS : +44 1851 707 444



MET'MAP, your aeronautical weather chart ! - Copyright ORBIFLY December 2007 - Disclaimer

ORBIFLY MET'MAP TEAM :

Programming & Development : Alexandra Zaïnal
Concept & original design : Baudouin d'Aumeries
Assistance for programming : Marc-Olivier Méhu
Technical & hardware support : Manuel Goepfert

Contact : metmap@orbifly.com




SOURCES & CREDITS :

   NOAA